< Typhoon 201001 2010 Season Typhoon 201003 >
Typhoon 201002 (CONSON)
General InformationTrack Information on Google MapsDetailed Wind InformationAccess Analytics MapList of All Images || NewsDisaster Info.WeblogTrackbackTyphoon FrontTwiphoonTyphoon Now!Typhoon ImaginationResourceGoogle EarthGE AnimationAtom FeedGeoJSON
Detalied Best Track (Time Zone = UTC)
Year Month Day Hour Lat. Long. Pressure (hPa) Wind (kt) Class Image Chart
2010 7 11 12 13.9 132.6 1008 0 2 Image Chart
2010 7 11 18 14.2 131.8 1004 0 2 Image Chart
2010 7 12 00 14.3 130.3 1000 35 3 Image Chart
2010 7 12 06 14.1 129.3 994 45 3 Image Chart
2010 7 12 12 14.3 127.7 985 55 4 Image Chart
2010 7 12 18 14.3 126.5 975 65 5 Image Chart
2010 7 13 00 14.3 124.8 975 65 5 Image Chart
2010 7 13 06 14.4 123.5 975 65 5 Image Chart
2010 7 13 12 14.5 122.3 975 65 5 Image Chart
2010 7 13 18 14.3 120.9 980 60 4 Image Chart
2010 7 14 00 14.7 119.6 985 55 4 Image Chart
2010 7 14 06 15.3 118.3 990 50 4 Image Chart
2010 7 14 12 16.0 117.7 992 45 3 Image Chart
2010 7 14 18 16.1 116.1 992 45 3 Image Chart
2010 7 15 00 16.2 115.0 990 50 4 Image Chart
2010 7 15 06 16.6 113.9 985 55 4 Image Chart
2010 7 15 12 16.7 112.9 975 65 5 Image Chart
2010 7 15 18 16.9 111.9 975 65 5 Image Chart
2010 7 16 00 17.0 111.0 975 65 5 Image Chart
2010 7 16 06 17.6 110.2 970 70 5 Image Chart
2010 7 16 12 18.0 109.5 970 65 5 Image Chart
2010 7 16 18 18.5 108.6 970 65 5 Image Chart
2010 7 17 00 19.2 108.0 980 55 4 Image Chart
2010 7 17 06 20.1 107.5 990 50 4 Image Chart
2010 7 17 12 20.6 106.9 992 45 3 Image Chart
2010 7 17 18 21.1 106.1 996 40 3 Image Chart
2010 7 18 00 21.0 105.0 1000 0 2 Image Chart
Japan Meteorological Agency Best Track Data | Correction Date : 2010-09-10
< Typhoon 201001 2010 Season Typhoon 201003 >

Help